weather.gov     
National Weather Service

Terminal Aerodrome Forecast
NWS Homepage
This page is being discontinued on March 12, 2014.
The same data is available at this site. Please update your bookmarks.
Thank you, and we apologize for the inconvenience.
Please send an email to SR-SRH.Webmaster@noaa.gov with any concerns.


Current Version
Previous Version:    01  02  03  04  05  06  07  08  09  10  11  12  13  14  15  16  17  18  19  20  21  22  23  24  25  26  27  28  29  30  
   31  
[Printable]
080
FTUS44 KLZK 242300 AAA
TAFHOT
TAF AMD
KHOT 242353Z 2500/2524 30009KT P6SM BKN035 OVC080
     FM250200 29010KT P6SM BKN040 BKN100
     FM250600 28010KT P6SM SCT040 BKN100
     FM250900 29006KT P6SM SKC
      TEMPO 2509/2512 5SM BR
     FM251300 27006KT P6SM SCT250=


U.S. Dept. of Commerce
NOAA National Weather Service
1325 East West Highway
Silver Spring, MD 20910
E-mail: w-nws.webmaster@noaa.gov
Page last modified: May 16, 2007
NATIONAL WEATHER SERVICE: for Safety, for Work, for Fun - FOR LIFE